Time;durP1;ratioP1;P1;durP2;ratioP2;P2;SDS_P1;SDS_P2;PMS_P1;PMS_P2;Temp;Humidity;BMP_temperature;BMP_pressure;BME280_temperature;BME280_humidity;BME280_pressure;Samples;Min_cycle;Max_cycle;Signal;HPM_P1;HPM_P2
2021/03/01 00:04:37;;;;;;;12.27;3.25;;;4.90;99.90;;;;;;10204640;28;20510;-47
2021/03/01 00:09:58;;;;;;;7.88;3.50;;;4.90;99.90;;;;;;10191018;28;20043;-47
2021/03/01 00:15:22;;;;;;;9.02;2.65;;;4.90;99.90;;;;;;10195228;28;20063;-47
2021/03/01 00:20:43;;;;;;;9.45;2.50;;;5.00;99.90;;;;;;10196287;28;20047;-47
2021/03/01 00:26:04;;;;;;;7.90;3.22;;;4.90;99.90;;;;;;10201933;28;20051;-47
2021/03/01 00:31:25;;;;;;;6.78;3.17;;;4.80;99.90;;;;;;10200282;28;20525;-47
2021/03/01 00:36:46;;;;;;;7.25;3.08;;;4.80;99.90;;;;;;10199832;28;20107;-47
2021/03/01 00:42:07;;;;;;;7.45;2.30;;;4.80;99.90;;;;;;10203321;28;20139;-47
2021/03/01 00:47:27;;;;;;;8.63;3.15;;;4.90;99.90;;;;;;10201630;28;20039;-47
2021/03/01 00:52:48;;;;;;;7.35;2.83;;;4.70;99.90;;;;;;10201904;28;20043;-47
2021/03/01 00:58:09;;;;;;;8.45;2.25;;;4.70;99.90;;;;;;10195020;28;20126;-47
2021/03/01 01:03:30;;;;;;;9.15;2.67;;;4.70;99.90;;;;;;10193678;28;20080;-47
2021/03/01 01:08:51;;;;;;;12.60;2.65;;;4.80;99.90;;;;;;10198563;28;20039;-47
2021/03/01 01:14:13;;;;;;;8.30;3.00;;;4.90;99.90;;;;;;10200565;28;20035;-47
2021/03/01 01:19:34;;;;;;;8.07;2.35;;;4.80;99.90;;;;;;10157948;29;20130;-47
2021/03/01 01:24:55;;;;;;;9.30;3.00;;;4.80;99.90;;;;;;10157430;29;20052;-47
2021/03/01 01:30:22;;;;;;;8.75;2.35;;;4.80;99.90;;;;;;10157331;29;20039;-47
2021/03/01 01:35:43;;;;;;;10.73;3.10;;;4.90;99.90;;;;;;10154642;29;20048;-48
2021/03/01 01:41:04;;;;;;;7.90;3.22;;;4.90;99.90;;;;;;10156241;29;20036;-47
2021/03/01 01:46:25;;;;;;;12.88;4.18;;;5.00;99.90;;;;;;10153615;29;20070;-47
2021/03/01 01:51:46;;;;;;;11.10;2.85;;;5.00;99.90;;;;;;10155404;29;20051;-47
2021/03/01 01:57:07;;;;;;;8.27;2.50;;;4.90;99.90;;;;;;10157582;29;20036;-47
2021/03/01 02:02:28;;;;;;;11.18;2.97;;;5.00;99.90;;;;;;10153641;29;20342;-47
2021/03/01 02:08:02;;;;;;;10.00;2.47;;;5.10;99.90;;;;;;10153773;29;20389;-47
2021/03/01 02:13:40;;;;;;;7.00;2.50;;;5.10;99.90;;;;;;10157963;29;20039;-47
2021/03/01 02:19:02;;;;;;;8.90;2.75;;;5.10;99.90;;;;;;10191442;28;20044;-47
2021/03/01 02:24:28;;;;;;;11.48;2.58;;;5.00;99.90;;;;;;10190192;28;20064;-47
2021/03/01 02:29:55;;;;;;;7.93;2.45;;;5.00;99.90;;;;;;10197162;28;20031;-47
2021/03/01 02:35:17;;;;;;;6.60;2.35;;;5.00;99.90;;;;;;10191586;28;20040;-47
2021/03/01 02:40:41;;;;;;;7.72;2.13;;;5.20;99.90;;;;;;10197073;28;20042;-47
2021/03/01 02:46:02;;;;;;;6.90;2.10;;;5.10;99.90;;;;;;10193059;28;20754;-47
2021/03/01 02:51:25;;;;;;;7.47;1.80;;;5.10;99.90;;;;;;10196086;28;20044;-47
2021/03/01 02:56:48;;;;;;;8.73;3.22;;;5.10;99.90;;;;;;10186167;28;20484;-47
2021/03/01 03:02:09;;;;;;;12.07;3.40;;;5.10;99.90;;;;;;10195719;28;20114;-47
2021/03/01 03:07:32;;;;;;;9.23;3.15;;;5.00;99.90;;;;;;10196728;28;20046;-47
2021/03/01 03:12:54;;;;;;;11.63;3.85;;;5.10;99.90;;;;;;10208010;28;20046;-47
2021/03/01 03:18:18;;;;;;;13.43;3.90;;;4.90;99.90;;;;;;10205029;28;20155;-47
2021/03/01 03:23:39;;;;;;;6.10;2.00;;;5.00;99.90;;;;;;10206743;28;20075;-47
2021/03/01 03:29:01;;;;;;;12.63;2.80;;;5.00;99.90;;;;;;10205903;28;20039;-47
2021/03/01 03:34:22;;;;;;;6.35;2.38;;;5.10;99.90;;;;;;10204102;28;20055;-47
2021/03/01 03:39:46;;;;;;;12.77;2.95;;;5.10;99.90;;;;;;10202134;28;20485;-47
2021/03/01 03:45:08;;;;;;;6.82;2.70;;;5.10;99.90;;;;;;10203195;28;22358;-47
2021/03/01 03:50:30;;;;;;;7.72;2.28;;;5.00;99.90;;;;;;10174817;28;20163;-47
2021/03/01 03:55:53;;;;;;;7.40;3.08;;;5.10;99.90;;;;;;10207013;28;20050;-47
2021/03/01 04:01:18;;;;;;;5.20;2.42;;;5.10;99.90;;;;;;10199023;28;20039;-47
2021/03/01 04:06:42;;;;;;;8.43;2.60;;;5.00;99.90;;;;;;10199612;28;20172;-47
2021/03/01 04:12:05;;;;;;;7.88;2.63;;;5.10;99.90;;;;;;10199063;28;20091;-47
2021/03/01 04:17:27;;;;;;;10.63;3.35;;;4.90;99.90;;;;;;10202729;28;20058;-47
2021/03/01 04:22:50;;;;;;;10.23;3.35;;;4.90;99.90;;;;;;10200630;28;20067;-47
2021/03/01 04:28:13;;;;;;;8.70;3.15;;;5.00;99.90;;;;;;10194746;28;20126;-47
2021/03/01 04:33:35;;;;;;;10.27;3.33;;;5.00;99.90;;;;;;10202913;28;20079;-47
2021/03/01 04:38:56;;;;;;;11.77;3.17;;;5.10;99.90;;;;;;10200916;28;20070;-47
2021/03/01 04:44:18;;;;;;;10.77;4.07;;;5.10;99.90;;;;;;10203848;28;20432;-47
2021/03/01 04:49:39;;;;;;;11.38;3.67;;;5.00;99.90;;;;;;10201453;28;20051;-47
2021/03/01 04:55:01;;;;;;;15.13;4.80;;;5.20;99.90;;;;;;10204310;28;20546;-47
2021/03/01 05:00:23;;;;;;;8.95;3.17;;;5.10;99.90;;;;;;10199771;28;20138;-47
2021/03/01 05:05:44;;;;;;;10.40;4.38;;;5.10;99.90;;;;;;10203551;28;20050;-47
2021/03/01 05:11:07;;;;;;;10.98;3.38;;;5.10;99.90;;;;;;10202682;28;20114;-47
2021/03/01 05:16:29;;;;;;;8.50;2.67;;;5.20;99.90;;;;;;10197232;28;20051;-47
2021/03/01 05:21:50;;;;;;;12.63;3.40;;;5.10;99.90;;;;;;10194982;28;20042;-47
2021/03/01 05:27:11;;;;;;;11.10;3.85;;;5.00;99.90;;;;;;10195337;28;20071;-47
2021/03/01 05:32:32;;;;;;;11.43;3.35;;;5.00;99.90;;;;;;10196325;28;20148;-47
2021/03/01 05:37:53;;;;;;;11.00;4.47;;;4.80;99.90;;;;;;10202609;28;20039;-47
2021/03/01 05:43:17;;;;;;;9.48;3.67;;;4.70;99.90;;;;;;10199027;28;20051;-47
2021/03/01 05:48:40;;;;;;;12.18;4.97;;;4.80;99.90;;;;;;10198553;28;20468;-47
2021/03/01 05:54:02;;;;;;;10.45;4.32;;;4.90;99.90;;;;;;10204813;28;20039;-47
2021/03/01 05:59:23;;;;;;;16.42;4.50;;;4.80;99.90;;;;;;10194830;28;20043;-47
2021/03/01 06:04:44;;;;;;;10.20;3.50;;;4.90;99.90;;;;;;10198459;28;20040;-47
2021/03/01 06:10:06;;;;;;;12.88;4.07;;;4.80;99.90;;;;;;10184593;28;20043;-47
2021/03/01 06:15:28;;;;;;;12.90;3.75;;;4.70;99.90;;;;;;10192393;28;20567;-47
2021/03/01 06:20:50;;;;;;;7.75;2.63;;;4.80;99.90;;;;;;10193620;28;20043;-47
2021/03/01 06:26:32;;;;;;;16.02;3.58;;;4.70;99.90;;;;;;10196373;28;20050;-47
2021/03/01 06:31:52;;;;;;;9.57;3.78;;;4.70;99.90;;;;;;10196097;28;20058;-47
2021/03/01 06:37:16;;;;;;;9.82;4.07;;;4.70;99.90;;;;;;10199498;28;20118;-47
2021/03/01 06:42:37;;;;;;;15.98;4.47;;;4.60;99.90;;;;;;10200339;28;20484;-47
2021/03/01 06:47:58;;;;;;;14.15;5.07;;;4.60;99.90;;;;;;10201473;28;20423;-47
2021/03/01 06:53:19;;;;;;;10.95;3.97;;;4.60;99.90;;;;;;10200489;28;20508;-47
2021/03/01 06:58:47;;;;;;;14.57;6.18;;;4.70;99.90;;;;;;10202422;28;20211;-47
2021/03/01 07:04:08;;;;;;;11.77;3.90;;;4.60;99.90;;;;;;10208886;28;20495;-47
2021/03/01 07:09:32;;;;;;;9.98;3.38;;;4.60;99.90;;;;;;10197580;28;20290;-48
2021/03/01 07:14:53;;;;;;;7.70;3.40;;;4.60;99.90;;;;;;10201863;28;20240;-48
2021/03/01 07:20:15;;;;;;;10.40;2.75;;;4.70;99.90;;;;;;10197168;28;20035;-48
2021/03/01 07:25:36;;;;;;;11.90;4.93;;;4.70;99.90;;;;;;10201391;28;20064;-48
2021/03/01 07:30:57;;;;;;;13.40;4.18;;;4.80;99.90;;;;;;10202803;28;20035;-48
2021/03/01 07:36:18;;;;;;;11.18;3.45;;;4.60;99.90;;;;;;10197713;28;20051;-48
2021/03/01 07:41:39;;;;;;;13.05;3.20;;;4.60;99.90;;;;;;10202450;28;20051;-48
2021/03/01 07:47:03;;;;;;;11.18;4.88;;;4.50;99.90;;;;;;10202081;28;20067;-48
2021/03/01 07:52:31;;;;;;;12.27;4.68;;;4.50;99.90;;;;;;10203235;28;20321;-48
2021/03/01 07:58:05;;;;;;;13.45;3.75;;;4.50;99.90;;;;;;10199347;28;20054;-48
2021/03/01 08:03:36;;;;;;;11.00;3.58;;;4.50;99.90;;;;;;10203630;28;20690;-48
2021/03/01 08:08:57;;;;;;;10.45;2.45;;;4.40;99.90;;;;;;10209105;28;20066;-48
2021/03/01 08:14:47;;;;;;;8.95;3.00;;;4.50;99.90;;;;;;10209414;28;20051;-48
2021/03/01 08:20:14;;;;;;;;;;;4.50;99.90;;;;;;10205669;29;20073;-48
2021/03/01 08:31:08;;;;;;;12.00;3.47;;;4.50;99.90;;;;;;10196658;28;20039;-48
2021/03/01 08:36:29;;;;;;;10.65;3.38;;;4.50;99.90;;;;;;10201507;28;20054;-48
2021/03/01 08:41:50;;;;;;;13.05;3.60;;;4.30;99.90;;;;;;10203642;28;20380;-48
2021/03/01 08:47:11;;;;;;;7.35;2.55;;;4.10;99.90;;;;;;10191230;28;20059;-48
2021/03/01 08:52:32;;;;;;;14.82;2.55;;;4.20;99.90;;;;;;10200846;28;20783;-48
2021/03/01 08:58:12;;;;;;;10.55;3.00;;;4.20;99.90;;;;;;10201855;28;20063;-48
2021/03/01 09:03:34;;;;;;;10.50;2.35;;;4.20;99.90;;;;;;10200352;28;20047;-48
2021/03/01 09:08:56;;;;;;;13.88;3.42;;;4.10;99.90;;;;;;10190355;28;20050;-48
2021/03/01 09:14:17;;;;;;;9.80;2.22;;;4.20;99.90;;;;;;10202882;28;20124;-48
2021/03/01 09:19:38;;;;;;;14.45;2.40;;;4.30;99.90;;;;;;10199267;28;20157;-48
2021/03/01 09:24:59;;;;;;;8.10;2.60;;;4.20;99.90;;;;;;10201748;28;20059;-48
2021/03/01 09:30:24;;;;;;;11.35;3.30;;;4.30;99.90;;;;;;10194254;28;20364;-48
2021/03/01 09:35:48;;;;;;;9.50;3.20;;;4.40;99.90;;;;;;10200495;28;20035;-48
2021/03/01 09:41:11;;;;;;;10.48;3.08;;;4.70;99.90;;;;;;10191377;28;20066;-48
2021/03/01 09:46:34;;;;;;;5.85;2.03;;;4.80;99.90;;;;;;10194312;28;20059;-48
2021/03/01 09:51:56;;;;;;;7.18;2.40;;;4.90;99.90;;;;;;10202916;28;20046;-48
2021/03/01 09:57:17;;;;;;;11.63;2.20;;;4.90;99.90;;;;;;10198400;28;20035;-48
2021/03/01 10:02:38;;;;;;;8.75;3.25;;;5.00;99.90;;;;;;10197598;28;20692;-48
2021/03/01 10:08:00;;;;;;;9.52;2.25;;;5.10;99.90;;;;;;10192425;28;20117;-48
2021/03/01 10:13:25;;;;;;;7.47;2.92;;;5.10;99.90;;;;;;10193985;29;20495;-48
2021/03/01 10:18:46;;;;;;;9.40;2.75;;;5.30;99.90;;;;;;10195834;28;20051;-48
2021/03/01 10:24:10;;;;;;;8.88;2.35;;;5.30;99.90;;;;;;10196157;28;20051;-48
2021/03/01 10:29:32;;;;;;;7.40;2.70;;;5.40;99.90;;;;;;10198165;28;20041;-48
2021/03/01 10:34:54;;;;;;;9.77;2.63;;;5.40;99.90;;;;;;10200235;28;20050;-48
2021/03/01 10:40:25;;;;;;;8.88;2.35;;;5.50;99.90;;;;;;10198930;28;20043;-48
2021/03/01 10:45:50;;;;;;;8.00;2.13;;;5.40;99.90;;;;;;10192407;28;20083;-48
2021/03/01 10:51:10;;;;;;;8.45;2.60;;;5.30;99.90;;;;;;10192749;28;20051;-48
2021/03/01 10:56:32;;;;;;;8.85;2.45;;;5.50;99.90;;;;;;10200645;28;20479;-48
2021/03/01 11:01:53;;;;;;;7.22;2.38;;;5.70;99.90;;;;;;10197650;28;20106;-48
2021/03/01 11:07:14;;;;;;;10.02;2.22;;;5.80;99.90;;;;;;10195072;28;20118;-48
2021/03/01 11:12:37;;;;;;;15.68;3.65;;;6.00;99.90;;;;;;10197764;28;20771;-48
2021/03/01 11:17:58;;;;;;;7.78;2.85;;;6.10;99.90;;;;;;10194208;28;20051;-48
2021/03/01 11:23:19;;;;;;;5.88;1.58;;;6.10;99.90;;;;;;10191747;28;20106;-48
2021/03/01 11:28:41;;;;;;;6.28;1.95;;;6.20;99.90;;;;;;10180682;28;20326;-48
2021/03/01 11:34:06;;;;;;;5.95;2.47;;;6.30;99.90;;;;;;10203057;28;20491;-48
2021/03/01 11:39:27;;;;;;;7.75;2.05;;;6.30;99.90;;;;;;10200361;28;20480;-48
2021/03/01 11:44:48;;;;;;;5.28;1.88;;;6.70;99.90;;;;;;10197861;28;20272;-48
2021/03/01 11:50:09;;;;;;;7.43;2.83;;;7.50;99.90;;;;;;10197409;28;20036;-49
2021/03/01 11:55:31;;;;;;;5.90;3.08;;;8.50;99.90;;;;;;10199915;28;20035;-49
2021/03/01 12:00:52;;;;;;;5.43;2.33;;;10.90;99.90;;;;;;10201995;28;20039;-49
2021/03/01 12:06:13;;;;;;;6.65;2.80;;;11.80;99.90;;;;;;10232597;28;20126;-49
2021/03/01 12:11:34;;;;;;;7.60;2.60;;;11.90;99.90;;;;;;10231182;28;20039;-49
2021/03/01 12:16:55;;;;;;;8.43;2.85;;;13.60;99.90;;;;;;10200578;28;20099;-49
2021/03/01 12:22:16;;;;;;;8.13;2.60;;;14.20;99.90;;;;;;10206173;28;20483;-49
2021/03/01 12:27:37;;;;;;;9.02;2.38;;;14.80;99.90;;;;;;10193747;28;20365;-49
2021/03/01 12:32:58;;;;;;;10.52;2.00;;;15.80;99.90;;;;;;10191269;28;20047;-49
2021/03/01 12:38:19;;;;;;;8.15;2.55;;;16.70;98.90;;;;;;10191291;28;20132;-50
2021/03/01 12:43:40;;;;;;;6.18;2.03;;;16.50;97.80;;;;;;10200075;28;20435;-49
2021/03/01 12:49:01;;;;;;;5.50;1.88;;;16.50;98.40;;;;;;10201666;28;20506;-50
2021/03/01 12:54:23;;;;;;;6.53;3.05;;;16.60;96.70;;;;;;10203272;28;20118;-49
2021/03/01 12:59:44;;;;;;;5.47;2.42;;;16.40;97.50;;;;;;10201158;28;20043;-49
2021/03/01 13:05:07;;;;;;;6.72;2.35;;;16.80;97.60;;;;;;10198208;28;20052;-50
2021/03/01 13:10:28;;;;;;;6.18;2.25;;;17.30;95.40;;;;;;10197060;28;20109;-49
2021/03/01 13:15:49;;;;;;;5.43;2.13;;;17.60;96.10;;;;;;10194953;28;20047;-50
2021/03/01 13:21:10;;;;;;;11.50;3.15;;;18.30;87.60;;;;;;10163099;29;20558;-50
2021/03/01 13:26:31;;;;;;;4.93;2.22;;;19.10;86.70;;;;;;10164550;28;20441;-49
2021/03/01 13:31:52;;;;;;;4.45;1.83;;;17.50;94.20;;;;;;10162584;28;20040;-51
2021/03/01 13:37:13;;;;;;;5.85;1.98;;;18.50;91.30;;;;;;10158714;29;20051;-50
2021/03/01 13:42:37;;;;;;;3.92;1.80;;;18.50;87.60;;;;;;10157748;28;20040;-50
2021/03/01 13:47:59;;;;;;;7.70;2.28;;;18.20;85.00;;;;;;10157444;29;20062;-51
2021/03/01 13:53:20;;;;;;;7.93;2.97;;;18.70;86.00;;;;;;10157411;28;20087;-50
2021/03/01 13:58:41;;;;;;;7.13;3.40;;;18.90;81.10;;;;;;10158182;29;20570;-50
2021/03/01 14:04:03;;;;;;;6.60;2.28;;;18.80;81.90;;;;;;10155102;28;20207;-51
2021/03/01 14:09:24;;;;;;;4.75;1.77;;;18.90;81.20;;;;;;10159232;28;20043;-50
2021/03/01 14:14:45;;;;;;;5.55;2.25;;;18.80;81.70;;;;;;10136321;28;20075;-50
2021/03/01 14:20:07;;;;;;;5.25;1.73;;;19.30;79.70;;;;;;10169716;28;20053;-51
2021/03/01 14:25:28;;;;;;;5.90;1.33;;;19.60;76.60;;;;;;10201853;28;20159;-50
2021/03/01 14:30:50;;;;;;;6.10;2.08;;;19.40;78.10;;;;;;10198453;28;20043;-50
2021/03/01 14:36:11;;;;;;;4.00;1.65;;;19.10;79.40;;;;;;10203474;28;20265;-50
2021/03/01 14:41:32;;;;;;;3.20;1.52;;;19.70;75.10;;;;;;10192835;28;20039;-50
2021/03/01 14:46:54;;;;;;;3.78;1.50;;;19.60;74.70;;;;;;10207530;28;20044;-50
2021/03/01 14:52:15;;;;;;;7.85;2.70;;;18.80;80.40;;;;;;10219115;28;20445;-50
2021/03/01 14:57:36;;;;;;;8.27;2.53;;;17.70;84.80;;;;;;10197253;29;20129;-49
2021/03/01 15:02:57;;;;;;;7.18;2.13;;;16.50;94.90;;;;;;10204003;28;20028;-49
2021/03/01 15:08:19;;;;;;;5.78;1.88;;;14.90;99.90;;;;;;10223030;28;20052;-49
2021/03/01 15:13:40;;;;;;;5.95;2.13;;;14.60;99.90;;;;;;10216042;28;20040;-49
2021/03/01 15:19:01;;;;;;;5.82;1.98;;;14.10;99.90;;;;;;10200965;28;20051;-49
2021/03/01 15:24:22;;;;;;;6.05;2.58;;;13.40;99.90;;;;;;10196498;28;20102;-48
2021/03/01 15:29:43;;;;;;;6.30;2.00;;;12.80;99.90;;;;;;10204074;28;20562;-49
2021/03/01 15:35:06;;;;;;;6.78;2.65;;;12.60;99.90;;;;;;10194295;28;20274;-49
2021/03/01 15:40:28;;;;;;;6.53;1.88;;;12.50;99.90;;;;;;10194589;28;20509;-49
2021/03/01 15:45:49;;;;;;;6.22;1.88;;;12.20;99.90;;;;;;10174535;28;20408;-49
2021/03/01 15:51:10;;;;;;;5.32;1.67;;;12.00;99.90;;;;;;10164539;28;20046;-49
2021/03/01 15:56:31;;;;;;;6.97;1.88;;;11.80;99.90;;;;;;10199614;28;20396;-49
2021/03/01 16:01:52;;;;;;;8.25;2.33;;;11.60;99.90;;;;;;10198732;28;20055;-49
2021/03/01 16:07:13;;;;;;;6.07;2.28;;;11.50;99.90;;;;;;10197571;28;20532;-50
2021/03/01 16:12:34;;;;;;;7.57;2.00;;;11.50;99.90;;;;;;10190502;28;20175;-50
2021/03/01 16:17:57;;;;;;;6.70;1.98;;;11.40;99.90;;;;;;10200781;28;20138;-50
2021/03/01 16:23:19;;;;;;;7.53;2.78;;;11.30;99.90;;;;;;10199475;28;20044;-50
2021/03/01 16:28:40;;;;;;;4.30;1.75;;;11.20;99.90;;;;;;10195961;28;20071;-49
2021/03/01 16:34:02;;;;;;;10.05;2.25;;;11.20;99.90;;;;;;10189785;28;20038;-50
2021/03/01 16:39:23;;;;;;;6.55;2.53;;;11.00;99.90;;;;;;10200120;28;20039;-50
2021/03/01 16:44:47;;;;;;;8.80;2.47;;;11.00;99.90;;;;;;10201862;28;20133;-49
2021/03/01 16:50:08;;;;;;;8.02;2.97;;;10.80;99.90;;;;;;10201363;28;20051;-49
2021/03/01 16:55:31;;;;;;;4.00;1.95;;;10.80;99.90;;;;;;10198650;28;20398;-48
2021/03/01 17:00:52;;;;;;;2.95;1.63;;;10.70;99.90;;;;;;10202803;28;20036;-49
2021/03/01 17:06:20;;;;;;;4.88;1.60;;;10.60;99.90;;;;;;10204308;28;20067;-49
2021/03/01 17:11:43;;;;;;;5.20;1.88;;;10.30;99.90;;;;;;10206335;28;20484;-49
2021/03/01 17:17:05;;;;;;;7.95;2.50;;;10.20;99.90;;;;;;10204303;28;20039;-49
2021/03/01 17:22:28;;;;;;;10.07;1.73;;;10.20;99.90;;;;;;10174938;28;20126;-48
2021/03/01 17:27:49;;;;;;;8.38;1.45;;;10.00;99.90;;;;;;10180345;28;20420;-48
2021/03/01 17:33:11;;;;;;;5.93;2.00;;;9.90;99.90;;;;;;10180173;28;20135;-49
2021/03/01 17:38:32;;;;;;;7.03;1.95;;;9.80;99.90;;;;;;10184975;28;20556;-48
2021/03/01 17:43:53;;;;;;;5.82;2.38;;;9.70;99.90;;;;;;10185220;28;22900;-48
2021/03/01 17:49:38;;;;;;;7.35;2.15;;;9.60;99.90;;;;;;10178427;28;20049;-49
2021/03/01 17:55:24;;;;;;;9.48;1.92;;;9.40;99.90;;;;;;10181560;28;20035;-49
2021/03/01 18:00:47;;;;;;;5.97;1.55;;;9.30;99.90;;;;;;10180585;28;20500;-49
2021/03/01 18:06:14;;;;;;;4.47;1.33;;;9.30;99.90;;;;;;10170544;28;20146;-49
2021/03/01 18:11:36;;;;;;;4.40;1.80;;;9.10;99.90;;;;;;10177686;28;20033;-48
2021/03/01 18:16:58;;;;;;;9.13;2.00;;;9.00;99.90;;;;;;10183424;28;20155;-48
2021/03/01 18:22:20;;;;;;;6.57;1.52;;;8.90;99.90;;;;;;10181752;28;20051;-49
2021/03/01 18:27:43;;;;;;;4.35;1.63;;;8.90;99.90;;;;;;10181040;28;20373;-49
2021/03/01 18:33:07;;;;;;;4.13;1.80;;;8.70;99.90;;;;;;10167452;28;20043;-48
2021/03/01 18:38:34;;;;;;;5.90;1.88;;;8.70;99.90;;;;;;10179787;28;20720;-49
2021/03/01 18:43:57;;;;;;;5.03;1.95;;;8.70;99.90;;;;;;10184488;28;20086;-49
2021/03/01 18:49:21;;;;;;;3.80;1.58;;;8.60;99.90;;;;;;10189088;28;20031;-48
2021/03/01 18:54:42;;;;;;;6.53;2.35;;;8.50;99.90;;;;;;10186814;28;20043;-49
2021/03/01 19:00:05;;;;;;;7.20;2.13;;;8.40;99.90;;;;;;10190666;28;20046;-48
2021/03/01 19:05:26;;;;;;;5.05;2.25;;;8.40;99.90;;;;;;10189246;28;20051;-48
2021/03/01 19:10:47;;;;;;;8.27;3.45;;;8.30;99.90;;;;;;10178432;28;20203;-48
2021/03/01 19:16:09;;;;;;;5.57;1.88;;;8.30;99.90;;;;;;10187724;28;20106;-48
2021/03/01 19:21:29;;;;;;;5.95;1.73;;;8.20;99.90;;;;;;10192316;28;20333;-49
2021/03/01 19:26:50;;;;;;;10.65;2.70;;;8.10;99.90;;;;;;10189758;28;20053;-48
2021/03/01 19:32:11;;;;;;;6.28;2.13;;;8.10;99.90;;;;;;10189697;28;20039;-48
2021/03/01 19:37:32;;;;;;;7.00;2.42;;;8.00;99.90;;;;;;10187192;28;20845;-49
2021/03/01 19:42:54;;;;;;;5.82;1.70;;;8.00;99.90;;;;;;10188055;28;20171;-48
2021/03/01 19:48:15;;;;;;;15.85;2.63;;;7.90;99.90;;;;;;10192358;28;20110;-48
2021/03/01 19:53:36;;;;;;;6.60;2.80;;;7.90;99.90;;;;;;10189556;28;20044;-48
2021/03/01 19:58:57;;;;;;;9.02;1.98;;;7.80;99.90;;;;;;10192835;28;20042;-48
2021/03/01 20:04:19;;;;;;;9.95;3.13;;;7.80;99.90;;;;;;10179856;28;20054;-48
2021/03/01 20:09:40;;;;;;;6.10;1.45;;;7.70;99.90;;;;;;10187868;28;20123;-48
2021/03/01 20:15:02;;;;;;;8.90;2.38;;;7.60;99.90;;;;;;10188947;28;20217;-48
2021/03/01 20:20:25;;;;;;;10.80;2.10;;;7.50;99.90;;;;;;10182580;28;20040;-48
2021/03/01 20:25:46;;;;;;;9.80;3.17;;;7.50;99.90;;;;;;10184590;28;20134;-49
2021/03/01 20:31:07;;;;;;;11.73;3.58;;;7.40;99.90;;;;;;10181338;28;20474;-48
2021/03/01 20:36:28;;;;;;;9.57;2.60;;;7.40;99.90;;;;;;10180607;28;20226;-48
2021/03/01 20:41:49;;;;;;;13.98;1.90;;;7.30;99.90;;;;;;10183591;28;20276;-48
2021/03/01 20:47:10;;;;;;;7.55;2.38;;;7.20;99.90;;;;;;10183673;28;20040;-48
2021/03/01 20:52:31;;;;;;;10.40;2.65;;;7.20;99.90;;;;;;10183494;28;20130;-48
2021/03/01 20:57:52;;;;;;;4.93;2.38;;;7.20;99.90;;;;;;10181796;28;20562;-48
2021/03/01 21:03:14;;;;;;;8.70;2.70;;;7.20;99.90;;;;;;10175212;28;20047;-48
2021/03/01 21:08:35;;;;;;;11.10;2.33;;;7.10;99.90;;;;;;10177366;28;20642;-48
2021/03/01 21:13:56;;;;;;;13.10;2.67;;;7.00;99.90;;;;;;10175204;28;20280;-48
2021/03/01 21:19:20;;;;;;;8.18;2.50;;;7.00;99.90;;;;;;10182454;28;20369;-48
2021/03/01 21:24:42;;;;;;;10.07;2.22;;;6.90;99.90;;;;;;10188915;28;20070;-48
2021/03/01 21:30:03;;;;;;;10.50;3.35;;;6.90;99.90;;;;;;10202074;28;20399;-48
2021/03/01 21:35:26;;;;;;;9.02;2.55;;;6.80;99.90;;;;;;10197185;28;20459;-49
2021/03/01 21:40:47;;;;;;;6.80;2.42;;;6.70;99.90;;;;;;10201368;28;20039;-49
2021/03/01 21:46:09;;;;;;;10.43;2.50;;;6.70;99.90;;;;;;10199491;28;20127;-48
2021/03/01 21:51:31;;;;;;;4.97;2.33;;;6.70;99.90;;;;;;10199612;28;20036;-48
2021/03/01 21:56:52;;;;;;;9.00;2.35;;;6.50;99.90;;;;;;10194145;28;20160;-48
2021/03/01 22:02:14;;;;;;;5.72;3.08;;;6.50;99.90;;;;;;10197272;28;20399;-48
2021/03/01 22:07:35;;;;;;;7.80;3.83;;;6.50;99.90;;;;;;10200483;28;20131;-48
2021/03/01 22:12:56;;;;;;;11.98;3.08;;;6.40;99.90;;;;;;10197875;28;20160;-49
2021/03/01 22:18:19;;;;;;;10.73;3.22;;;6.30;99.90;;;;;;10194838;28;20481;-48
2021/03/01 22:23:41;;;;;;;9.07;2.90;;;6.30;99.90;;;;;;10192588;28;20035;-48
2021/03/01 22:29:08;;;;;;;8.40;1.88;;;6.30;99.90;;;;;;10198570;28;20427;-48
2021/03/01 22:34:32;;;;;;;8.80;2.45;;;6.30;99.90;;;;;;10203722;28;20027;-48
2021/03/01 22:39:58;;;;;;;11.75;2.95;;;6.10;99.90;;;;;;10200596;28;20468;-48
2021/03/01 22:45:22;;;;;;;8.65;2.60;;;6.00;99.90;;;;;;10197034;28;20575;-48
2021/03/01 22:50:46;;;;;;;8.38;3.22;;;6.10;99.90;;;;;;10194527;28;20458;-48
2021/03/01 22:56:08;;;;;;;11.55;3.22;;;6.00;99.90;;;;;;10200531;28;20047;-48
2021/03/01 23:01:30;;;;;;;12.30;3.47;;;5.90;99.90;;;;;;10197584;28;20498;-48
2021/03/01 23:06:51;;;;;;;7.63;2.03;;;5.80;99.90;;;;;;10199089;28;21702;-48
2021/03/01 23:12:12;;;;;;;10.90;3.13;;;5.80;99.90;;;;;;10194730;28;20050;-48
2021/03/01 23:17:33;;;;;;;7.70;3.17;;;5.70;99.90;;;;;;10195839;28;20512;-48
2021/03/01 23:22:55;;;;;;;12.07;3.55;;;5.60;99.90;;;;;;10190929;28;20062;-49
2021/03/01 23:28:16;;;;;;;11.68;3.42;;;5.50;99.90;;;;;;10195922;28;20069;-48
2021/03/01 23:33:37;;;;;;;10.48;3.53;;;5.50;99.90;;;;;;10195984;28;20035;-49
2021/03/01 23:38:59;;;;;;;7.85;2.97;;;5.50;99.90;;;;;;10206042;28;20048;-49
2021/03/01 23:44:22;;;;;;;8.63;4.40;;;5.40;99.90;;;;;;10199298;28;21397;-48
2021/03/01 23:49:46;;;;;;;9.82;3.67;;;5.40;99.90;;;;;;10203208;28;20353;-48
2021/03/01 23:55:08;;;;;;;12.10;3.83;;;5.40;99.90;;;;;;10205836;28;20066;-48
